Time;durP1;ratioP1;P1;durP2;ratioP2;P2;SDS_P1;SDS_P2;PMS_P1;PMS_P2;Temp;Humidity;BMP_temperature;BMP_pressure;BME280_temperature;BME280_humidity;BME280_pressure;Samples;Min_cycle;Max_cycle;Signal;HPM_P1;HPM_P2
2022/01/03 00:01:45;;;;;;;;;;;11.60;99.90;;;;;;5051300;28;19983;-69
2022/01/03 00:04:11;;;;;;;;;;;11.60;99.90;;;;;;5050962;28;19911;-69
2022/01/03 00:06:38;;;;;;;;;;;11.60;99.90;;;;;;5050689;28;19905;-68
2022/01/03 00:09:04;;;;;;;;;;;11.60;99.90;;;;;;5051270;28;19910;-69
2022/01/03 00:11:29;;;;;;;;;;;11.60;99.90;;;;;;5051082;28;19963;-68
2022/01/03 00:13:55;;;;;;;;;;;11.60;99.90;;;;;;5054968;28;19911;-68
2022/01/03 00:16:23;;;;;;;;;;;11.50;99.90;;;;;;5054861;28;20308;-69
2022/01/03 00:18:50;;;;;;;;;;;11.40;99.90;;;;;;5037506;28;19935;-69
2022/01/03 00:21:16;;;;;;;;;;;11.40;99.90;;;;;;5055306;28;19954;-68
2022/01/03 00:23:49;;;;;;;;;;;11.50;99.90;;;;;;5053663;28;19913;-68
2022/01/03 00:26:19;;;;;;;;;;;11.50;99.90;;;;;;5058369;28;19909;-69
2022/01/03 00:28:51;;;;;;;;;;;11.50;99.90;;;;;;5066725;28;20276;-69
2022/01/03 00:31:17;;;;;;;;;;;11.40;99.90;;;;;;5075168;28;19959;-69
2022/01/03 00:33:42;;;;;;;;;;;11.60;99.90;;;;;;5075208;28;19995;-69
2022/01/03 00:36:08;;;;;;;;;;;11.60;99.90;;;;;;5054444;28;20373;-69
2022/01/03 00:38:34;;;;;;;;;;;11.60;99.90;;;;;;5037192;28;19916;-70
2022/01/03 00:41:01;;;;;;;;;;;11.50;99.90;;;;;;5054789;28;19951;-69
2022/01/03 00:43:27;;;;;;;;;;;11.50;99.90;;;;;;5054708;28;19904;-68
2022/01/03 00:45:53;;;;;;;;;;;11.50;99.90;;;;;;5054822;28;19909;-68
2022/01/03 00:48:19;;;;;;;;;;;11.30;99.90;;;;;;5054817;28;19911;-68
2022/01/03 00:50:44;;;;;;;;;;;11.30;99.90;;;;;;5054325;28;19912;-68
2022/01/03 00:53:10;;;;;;;;;;;11.40;99.90;;;;;;5054827;28;20405;-68
2022/01/03 00:55:37;;;;;;;;;;;11.40;99.90;;;;;;5054423;28;20286;-68
2022/01/03 00:58:06;;;;;;;;;;;11.40;99.90;;;;;;5051238;28;20408;-68
2022/01/03 01:00:36;;;;;;;;;;;11.50;99.90;;;;;;5052274;28;20003;-68
2022/01/03 01:03:02;;;;;;;;;;;11.50;99.90;;;;;;5051792;28;19909;-69
2022/01/03 01:05:27;;;;;;;;;;;11.40;99.90;;;;;;5064374;28;20318;-68
2022/01/03 01:07:58;;;;;;;;;;;11.40;99.90;;;;;;5067463;28;19942;-68
2022/01/03 01:10:30;;;;;;;;;;;11.40;99.90;;;;;;5072094;28;19999;-70
2022/01/03 01:12:56;;;;;;;;;;;11.30;99.90;;;;;;5053236;28;19909;-68
2022/01/03 01:15:24;;;;;;;;;;;11.30;99.90;;;;;;5053327;28;19995;-68
2022/01/03 01:17:51;;;;;;;;;;;11.30;99.90;;;;;;5054140;28;19904;-69
2022/01/03 01:20:20;;;;;;;;;;;11.30;99.90;;;;;;5054395;28;19904;-69
2022/01/03 01:22:45;;;;;;;;;;;11.30;99.90;;;;;;5053368;28;19912;-68
2022/01/03 01:27:47;;;;;;;;;;;11.30;99.90;;;;;;5054181;28;20350;-68
2022/01/03 01:30:13;;;;;;;;;;;11.30;99.90;;;;;;5054197;28;19911;-69
2022/01/03 01:32:41;;;;;;;;;;;11.20;99.90;;;;;;5053601;28;19909;-69
2022/01/03 01:35:07;;;;;;;;;;;11.30;99.90;;;;;;5054081;28;19955;-69
2022/01/03 01:37:32;;;;;;;;;;;11.30;99.90;;;;;;5053462;28;20286;-68
2022/01/03 01:39:58;;;;;;;;;;;11.30;99.90;;;;;;5053972;28;19948;-69
2022/01/03 01:42:24;;;;;;;;;;;11.30;99.90;;;;;;5052677;28;19912;-69
2022/01/03 01:44:51;;;;;;;;;;;11.30;99.90;;;;;;5053281;28;19971;-69
2022/01/03 01:47:17;;;;;;;;;;;11.20;99.90;;;;;;5053422;28;20328;-69
2022/01/03 01:49:46;;;;;;;;;;;11.20;99.90;;;;;;5053621;28;20003;-68
2022/01/03 01:52:16;;;;;;;;;;;11.30;99.90;;;;;;5053631;28;19955;-69
2022/01/03 01:54:49;;;;;;;;;;;11.20;99.90;;;;;;5053449;28;19908;-69
2022/01/03 01:57:18;;;;;;;;;;;11.20;99.90;;;;;;5053177;28;19915;-68
2022/01/03 01:59:50;;;;;;;;;;;11.20;99.90;;;;;;5053332;28;20447;-69
2022/01/03 02:02:16;;;;;;;;;;;11.20;99.90;;;;;;5057944;28;20365;-69
2022/01/03 02:04:47;;;;;;;;;;;11.20;99.90;;;;;;5062602;28;19970;-68
2022/01/03 02:07:33;;;;;;;;;;;11.20;99.90;;;;;;5071001;28;19905;-68
2022/01/03 02:10:03;;;;;;;;;;;11.20;99.90;;;;;;5073496;28;19904;-68
2022/01/03 02:12:30;;;;;;;;;;;11.20;99.90;;;;;;5073566;28;20304;-68
2022/01/03 02:14:57;;;;;;;;;;;11.10;99.90;;;;;;5069810;28;20392;-68
2022/01/03 02:17:23;;;;;;;;;;;11.20;99.90;;;;;;5053027;28;19905;-68
2022/01/03 02:20:06;;;;;;;;;;;11.10;99.90;;;;;;5053193;28;19908;-68
2022/01/03 02:22:31;;;;;;;;;;;11.20;99.90;;;;;;5052716;28;19916;-67
2022/01/03 02:24:56;;;;;;;;;;;11.20;99.90;;;;;;5053590;28;20388;-68
2022/01/03 02:27:22;;;;;;;;;;;11.20;99.90;;;;;;5052584;28;20276;-70
2022/01/03 02:29:48;;;;;;;;;;;11.20;99.90;;;;;;5053274;28;19928;-68
2022/01/03 02:32:13;;;;;;;;;;;11.30;99.90;;;;;;5052750;28;20014;-68
2022/01/03 02:34:40;;;;;;;;;;;11.30;99.90;;;;;;5052169;28;19962;-69
2022/01/03 02:37:06;;;;;;;;;;;11.20;99.90;;;;;;5051981;28;19915;-68
2022/01/03 02:39:31;;;;;;;;;;;11.20;99.90;;;;;;5052226;28;19995;-68
2022/01/03 02:41:57;;;;;;;;;;;11.30;99.90;;;;;;5052688;28;19912;-68
2022/01/03 02:44:23;;;;;;;;;;;11.20;99.90;;;;;;5052722;28;19935;-68
2022/01/03 02:46:48;;;;;;;;;;;11.20;99.90;;;;;;5052807;28;19905;-69
2022/01/03 02:49:14;;;;;;;;;;;11.10;99.90;;;;;;5052558;28;19912;-68
2022/01/03 02:51:42;;;;;;;;;;;11.10;99.90;;;;;;5051792;28;19912;-68
2022/01/03 02:54:08;;;;;;;;;;;11.20;99.90;;;;;;5052567;28;20309;-68
2022/01/03 02:56:34;;;;;;;;;;;11.20;99.90;;;;;;5052262;28;19927;-69
2022/01/03 02:58:59;;;;;;;;;;;11.10;99.90;;;;;;5052463;28;19905;-68
2022/01/03 03:01:25;;;;;;;;;;;11.20;99.90;;;;;;5051898;28;20022;-68
2022/01/03 03:03:50;;;;;;;;;;;11.20;99.90;;;;;;5052424;28;19951;-69
2022/01/03 03:06:16;;;;;;;;;;;11.10;99.90;;;;;;5051967;28;19905;-68
2022/01/03 03:08:42;;;;;;;;;;;11.10;99.90;;;;;;5052380;28;20323;-69
2022/01/03 03:11:07;;;;;;;;;;;11.10;99.90;;;;;;5052140;28;20011;-69
2022/01/03 03:13:33;;;;;;;;;;;11.10;99.90;;;;;;5052247;28;19966;-70
2022/01/03 03:15:58;;;;;;;;;;;11.20;99.90;;;;;;5051601;28;19905;-68
2022/01/03 03:18:24;;;;;;;;;;;11.10;99.90;;;;;;5052254;28;19911;-68
2022/01/03 03:20:49;;;;;;;;;;;11.10;99.90;;;;;;5033776;28;19905;-68
2022/01/03 03:23:15;;;;;;;;;;;11.10;99.90;;;;;;5051489;28;19919;-68
2022/01/03 03:25:40;;;;;;;;;;;11.20;99.90;;;;;;5051654;28;19916;-68
2022/01/03 03:28:06;;;;;;;;;;;11.30;99.90;;;;;;5052065;28;19905;-68
2022/01/03 03:30:39;;;;;;;;;;;11.20;99.90;;;;;;5051910;28;20285;-68
2022/01/03 03:33:10;;;;;;;;;;;11.30;99.90;;;;;;5051593;28;19909;-69
2022/01/03 03:35:35;;;;;;;;;;;11.40;99.90;;;;;;5051672;28;19904;-67
2022/01/03 03:38:01;;;;;;;;;;;11.40;99.90;;;;;;5051513;28;19905;-68
2022/01/03 03:40:26;;;;;;;;;;;11.40;99.90;;;;;;5051911;28;20003;-68
2022/01/03 03:42:53;;;;;;;;;;;11.40;99.90;;;;;;5051424;28;19950;-68
2022/01/03 03:45:19;;;;;;;;;;;11.40;99.90;;;;;;5051857;28;19904;-68
2022/01/03 03:47:44;;;;;;;;;;;11.40;99.90;;;;;;5051370;28;19912;-68
2022/01/03 03:50:10;;;;;;;;;;;11.30;99.90;;;;;;5051494;28;19904;-68
2022/01/03 03:52:35;;;;;;;;;;;11.30;99.90;;;;;;5033826;28;19912;-69
2022/01/03 03:55:01;;;;;;;;;;;11.30;99.90;;;;;;5051383;28;19909;-68
2022/01/03 03:57:26;;;;;;;;;;;11.20;99.90;;;;;;5051364;28;19912;-68
2022/01/03 03:59:52;;;;;;;;;;;11.10;99.90;;;;;;5051690;28;20003;-69
2022/01/03 04:02:17;;;;;;;;;;;11.20;99.90;;;;;;5046869;28;19909;-68
2022/01/03 04:04:43;;;;;;;;;;;11.10;99.90;;;;;;5058245;28;20284;-69
2022/01/03 04:07:08;;;;;;;;;;;11.20;99.90;;;;;;5062861;28;19905;-69
2022/01/03 04:09:34;;;;;;;;;;;11.20;99.90;;;;;;5071362;28;19909;-68
2022/01/03 04:11:59;;;;;;;;;;;11.00;99.90;;;;;;5070756;28;20006;-68
2022/01/03 04:14:25;;;;;;;;;;;11.10;99.90;;;;;;5071523;28;19911;-68
2022/01/03 04:16:50;;;;;;;;;;;11.10;99.90;;;;;;5051458;28;19956;-69
2022/01/03 04:19:16;;;;;;;;;;;11.20;99.90;;;;;;5050843;28;19905;-68
2022/01/03 04:21:42;;;;;;;;;;;11.20;99.90;;;;;;5051302;28;19962;-68
2022/01/03 04:24:08;;;;;;;;;;;11.30;99.90;;;;;;5051745;28;20354;-68
2022/01/03 04:26:34;;;;;;;;;;;11.20;99.90;;;;;;5050944;28;19909;-69
2022/01/03 04:29:00;;;;;;;;;;;11.20;99.90;;;;;;5051163;28;19977;-69
2022/01/03 04:31:25;;;;;;;;;;;11.10;99.90;;;;;;5051233;28;20279;-68
2022/01/03 04:33:51;;;;;;;;;;;11.10;99.90;;;;;;5056945;28;19908;-68
2022/01/03 04:36:16;;;;;;;;;;;11.20;99.90;;;;;;5060406;28;20415;-69
2022/01/03 04:38:42;;;;;;;;;;;11.10;99.90;;;;;;5071262;28;20365;-68
2022/01/03 04:41:09;;;;;;;;;;;11.10;99.90;;;;;;5052525;28;20011;-68
2022/01/03 04:43:35;;;;;;;;;;;11.10;99.90;;;;;;5051046;28;19919;-68
2022/01/03 04:46:01;;;;;;;;;;;11.20;99.90;;;;;;5050859;28;19915;-69
2022/01/03 04:48:26;;;;;;;;;;;11.10;99.90;;;;;;5051392;28;20285;-69
2022/01/03 04:50:52;;;;;;;;;;;11.20;99.90;;;;;;5050539;28;19912;-69
2022/01/03 04:53:18;;;;;;;;;;;11.20;99.90;;;;;;5051103;28;19936;-69
2022/01/03 04:55:44;;;;;;;;;;;11.10;99.90;;;;;;5050761;28;19991;-69
2022/01/03 04:58:10;;;;;;;;;;;11.10;99.90;;;;;;5052121;28;19905;-69
2022/01/03 05:00:36;;;;;;;;;;;11.10;99.90;;;;;;5054278;28;19987;-69
2022/01/03 05:03:02;;;;;;;;;;;11.10;99.90;;;;;;5036677;28;19912;-69
2022/01/03 05:05:27;;;;;;;;;;;11.20;99.90;;;;;;5036617;28;19905;-69
2022/01/03 05:07:53;;;;;;;;;;;11.10;99.90;;;;;;5054453;28;19904;-69
2022/01/03 05:10:19;;;;;;;;;;;11.00;99.90;;;;;;5054600;28;19991;-69
2022/01/03 05:12:45;;;;;;;;;;;11.10;99.90;;;;;;5054341;28;20018;-68
2022/01/03 05:15:10;;;;;;;;;;;11.00;99.90;;;;;;5054502;28;19909;-69
2022/01/03 05:17:36;;;;;;;;;;;11.00;99.90;;;;;;5054081;28;19943;-69
2022/01/03 05:20:01;;;;;;;;;;;11.00;99.90;;;;;;5053744;28;19904;-68
2022/01/03 05:22:26;;;;;;;;;;;10.90;99.90;;;;;;5053977;28;19954;-69
2022/01/03 05:24:52;;;;;;;;;;;10.90;99.90;;;;;;5086729;22;20393;-68
2022/01/03 05:27:17;;;;;;;;;;;10.90;99.90;;;;;;5056611;28;20050;-67
2022/01/03 05:29:43;;;;;;;;;;;10.90;99.90;;;;;;5054315;28;20262;-68
2022/01/03 05:32:08;;;;;;;;;;;11.00;99.90;;;;;;5055613;28;20333;-68
2022/01/03 05:34:34;;;;;;;;;;;10.90;99.90;;;;;;5074239;28;19991;-68
2022/01/03 05:36:59;;;;;;;;;;;10.90;99.90;;;;;;5074097;28;20357;-67
2022/01/03 05:39:25;;;;;;;;;;;10.80;99.90;;;;;;5074503;28;20453;-68
2022/01/03 05:41:50;;;;;;;;;;;10.80;99.90;;;;;;5074463;28;19932;-68
2022/01/03 05:44:16;;;;;;;;;;;10.90;99.90;;;;;;5070480;28;20270;-68
2022/01/03 05:46:41;;;;;;;;;;;10.90;99.90;;;;;;5073906;28;20338;-69
2022/01/03 05:49:08;;;;;;;;;;;11.00;99.90;;;;;;5074014;28;20394;-68
2022/01/03 05:51:34;;;;;;;;;;;11.00;99.90;;;;;;5074171;28;20284;-68
2022/01/03 05:53:59;;;;;;;;;;;11.00;99.90;;;;;;5072422;28;19904;-68
2022/01/03 05:56:24;;;;;;;;;;;11.00;99.90;;;;;;5073617;28;19913;-68
2022/01/03 05:58:51;;;;;;;;;;;11.00;99.90;;;;;;5074378;28;19904;-66
2022/01/03 06:01:19;;;;;;;;;;;11.10;99.90;;;;;;5074097;28;19958;-66
2022/01/03 06:03:44;;;;;;;;;;;11.00;99.90;;;;;;5073580;28;20365;-68
2022/01/03 06:08:35;;;;;;;;;;;11.10;99.90;;;;;;5074055;28;20345;-68
2022/01/03 06:11:01;;;;;;;;;;;11.10;99.90;;;;;;5073643;28;19913;-68
2022/01/03 06:13:26;;;;;;;;;;;11.10;99.90;;;;;;5073756;28;19910;-68
2022/01/03 06:15:52;;;;;;;;;;;11.10;99.90;;;;;;5071898;28;19954;-68
2022/01/03 06:18:17;;;;;;;;;;;11.10;99.90;;;;;;5073876;28;19916;-68
2022/01/03 06:20:44;;;;;;;;;;;11.10;99.90;;;;;;5073296;28;19905;-68
2022/01/03 06:23:10;;;;;;;;;;;11.10;99.90;;;;;;5073330;28;19915;-67
2022/01/03 06:25:36;;;;;;;;;;;11.00;99.90;;;;;;5071546;28;19959;-68
2022/01/03 06:28:06;;;;;;;;;;;11.00;99.90;;;;;;5073188;28;20022;-67
2022/01/03 06:30:32;;;;;;;;;;;11.00;99.90;;;;;;5066711;28;19991;-67
2022/01/03 06:32:58;;;;;;;;;;;11.00;99.90;;;;;;5072892;28;19955;-68
2022/01/03 06:35:23;;;;;;;;;;;11.00;99.90;;;;;;5072124;28;19911;-68
2022/01/03 06:37:48;;;;;;;;;;;11.10;99.90;;;;;;5070784;28;19908;-68
2022/01/03 06:40:14;;;;;;;;;;;11.10;99.90;;;;;;5062463;28;19947;-67
2022/01/03 06:42:39;;;;;;;;;;;11.10;99.90;;;;;;5068725;28;19935;-68
2022/01/03 06:45:05;;;;;;;;;;;11.10;99.90;;;;;;5069926;28;20490;-69
2022/01/03 06:47:31;;;;;;;;;;;11.10;99.90;;;;;;5067596;28;20351;-69
2022/01/03 06:49:56;;;;;;;;;;;11.20;99.90;;;;;;5066915;28;19954;-68
2022/01/03 06:52:22;;;;;;;;;;;11.20;99.90;;;;;;5054832;28;19908;-68
2022/01/03 06:54:47;;;;;;;;;;;11.20;99.90;;;;;;5070453;28;19916;-68
2022/01/03 06:57:12;;;;;;;;;;;11.20;99.90;;;;;;5069934;28;20287;-67
2022/01/03 06:59:38;;;;;;;;;;;11.20;99.90;;;;;;5072630;28;20395;-68
2022/01/03 07:02:04;;;;;;;;;;;11.20;99.90;;;;;;5062991;28;19912;-68
2022/01/03 07:04:30;;;;;;;;;;;11.10;99.90;;;;;;5070253;28;19904;-69
2022/01/03 07:06:55;;;;;;;;;;;11.00;99.90;;;;;;5070524;28;20335;-68
2022/01/03 07:09:21;;;;;;;;;;;11.00;99.90;;;;;;5069558;28;20003;-68
2022/01/03 07:11:46;;;;;;;;;;;11.00;99.90;;;;;;5069424;28;20003;-68
2022/01/03 07:19:34;;;;;;;;;;;11.00;99.90;;;;;;5069762;28;19915;-68
2022/01/03 07:22:00;;;;;;;;;;;11.10;99.90;;;;;;5067506;28;19908;-68
2022/01/03 07:24:26;;;;;;;;;;;11.10;99.90;;;;;;5064413;28;19966;-69
2022/01/03 07:26:51;;;;;;;;;;;11.20;99.90;;;;;;5066405;28;20346;-68
2022/01/03 07:29:17;;;;;;;;;;;11.20;99.90;;;;;;5066400;28;20006;-68
2022/01/03 07:31:42;;;;;;;;;;;11.10;99.90;;;;;;5071123;28;19935;-68
2022/01/03 07:34:08;;;;;;;;;;;11.00;99.90;;;;;;5070468;28;20002;-68
2022/01/03 07:36:33;;;;;;;;;;;11.00;99.90;;;;;;5056062;28;19912;-67
2022/01/03 07:38:59;;;;;;;;;;;11.00;99.90;;;;;;5050993;28;19923;-67
2022/01/03 07:41:24;;;;;;;;;;;11.00;99.90;;;;;;5068491;28;19911;-68
2022/01/03 07:43:49;;;;;;;;;;;11.00;99.90;;;;;;5064376;28;19920;-67
2022/01/03 07:46:15;;;;;;;;;;;11.00;99.90;;;;;;5065876;28;20316;-67
2022/01/03 07:48:40;;;;;;;;;;;11.00;99.90;;;;;;5064477;28;19919;-68
2022/01/03 07:51:06;;;;;;;;;;;11.00;99.90;;;;;;5058908;28;20369;-67
2022/01/03 07:53:31;;;;;;;;;;;11.00;99.90;;;;;;5048901;28;20024;-68
2022/01/03 07:55:58;;;;;;;;;;;11.00;99.90;;;;;;5058952;28;19913;-68
2022/01/03 07:58:24;;;;;;;;;;;11.10;99.90;;;;;;5049835;28;19909;-69
2022/01/03 08:00:50;;;;;;;;;;;11.00;99.90;;;;;;5049919;28;19909;-68
2022/01/03 08:03:16;;;;;;;;;;;11.00;99.90;;;;;;5031318;28;20445;-69
2022/01/03 08:05:41;;;;;;;;;;;11.00;99.90;;;;;;5057261;28;19909;-68
2022/01/03 08:08:10;;;;;;;;;;;11.00;99.90;;;;;;5070508;28;19913;-67
2022/01/03 08:10:36;;;;;;;;;;;11.10;99.90;;;;;;5069979;28;19912;-68
2022/01/03 08:13:01;;;;;;;;;;;11.00;99.90;;;;;;5072461;28;19912;-67
2022/01/03 08:15:27;;;;;;;;;;;11.10;99.90;;;;;;5070661;28;19924;-67
2022/01/03 08:17:52;;;;;;;;;;;11.00;99.90;;;;;;5077819;28;19912;-67
2022/01/03 08:20:19;;;;;;;;;;;11.10;99.90;;;;;;5080281;28;19908;-69
2022/01/03 08:22:45;;;;;;;;;;;11.10;99.90;;;;;;5081053;28;19958;-68
2022/01/03 08:25:10;;;;;;;;;;;11.10;99.90;;;;;;5078588;28;19916;-68
2022/01/03 08:27:38;;;;;;;;;;;11.10;99.90;;;;;;5070971;28;19943;-69
2022/01/03 08:30:04;;;;;;;;;;;11.10;99.90;;;;;;5058899;28;19908;-68
2022/01/03 08:32:29;;;;;;;;;;;11.10;99.90;;;;;;5049182;28;20297;-68
2022/01/03 08:34:55;;;;;;;;;;;11.10;99.90;;;;;;5052984;28;20058;-70
2022/01/03 08:37:20;;;;;;;;;;;11.10;99.90;;;;;;5063871;28;19987;-67
2022/01/03 08:39:46;;;;;;;;;;;11.20;99.90;;;;;;5067437;28;19920;-67
2022/01/03 08:42:11;;;;;;;;;;;11.20;99.90;;;;;;5053205;28;20006;-70
2022/01/03 08:44:37;;;;;;;;;;;11.20;99.90;;;;;;5065019;28;19997;-67
2022/01/03 08:47:02;;;;;;;;;;;11.10;99.90;;;;;;5072176;28;19908;-67
2022/01/03 08:49:28;;;;;;;;;;;11.10;99.90;;;;;;5071327;28;19916;-69
2022/01/03 08:51:53;;;;;;;;;;;11.00;99.90;;;;;;5071541;28;19968;-68
2022/01/03 08:54:18;;;;;;;;;;;11.10;99.90;;;;;;5072556;28;19916;-68
2022/01/03 08:56:44;;;;;;;;;;;11.10;99.90;;;;;;5071927;28;20289;-68
2022/01/03 08:59:09;;;;;;;;;;;11.10;99.90;;;;;;5072558;28;19997;-68
2022/01/03 09:01:35;;;;;;;;;;;11.10;99.90;;;;;;5070228;28;19919;-66
2022/01/03 09:04:00;;;;;;;;;;;11.00;99.90;;;;;;5072340;28;19959;-67
2022/01/03 09:06:26;;;;;;;;;;;11.00;99.90;;;;;;5053825;28;19912;-68
2022/01/03 09:08:51;;;;;;;;;;;11.00;99.90;;;;;;5071939;28;20002;-68
2022/01/03 09:11:17;;;;;;;;;;;11.00;99.90;;;;;;5070568;28;19916;-68
2022/01/03 09:13:43;;;;;;;;;;;11.10;99.90;;;;;;5072081;28;19912;-68
2022/01/03 09:16:08;;;;;;;;;;;11.10;99.90;;;;;;5072234;28;19908;-70
2022/01/03 09:18:39;;;;;;;;;;;11.10;99.90;;;;;;5071771;28;19908;-69
2022/01/03 09:21:05;;;;;;;;;;;11.10;99.90;;;;;;5075392;28;19908;-68
2022/01/03 09:23:35;;;;;;;;;;;11.10;99.90;;;;;;5075354;28;19912;-68
2022/01/03 09:28:56;;;;;;;;;;;11.00;99.90;;;;;;5075513;28;20214;-67
2022/01/03 09:31:24;;;;;;;;;;;11.10;99.90;;;;;;5052029;28;19916;-67
2022/01/03 09:33:50;;;;;;;;;;;11.20;99.90;;;;;;5065458;28;20288;-68
2022/01/03 09:36:16;;;;;;;;;;;11.20;99.90;;;;;;5072446;28;19953;-70
2022/01/03 09:38:41;;;;;;;;;;;11.20;99.90;;;;;;5072382;28;19979;-67
2022/01/03 09:41:07;;;;;;;;;;;11.20;99.90;;;;;;5071717;28;19908;-67
2022/01/03 09:43:40;;;;;;;;;;;11.20;99.90;;;;;;5065885;28;19913;-68
2022/01/03 09:46:08;;;;;;;;;;;11.10;99.90;;;;;;5062846;28;20015;-67
2022/01/03 09:48:34;;;;;;;;;;;11.20;99.90;;;;;;5071560;28;20399;-68
2022/01/03 09:50:59;;;;;;;;;;;11.20;99.90;;;;;;5071328;28;20640;-67
2022/01/03 09:53:25;;;;;;;;;;;11.30;99.90;;;;;;5071000;28;19908;-68
2022/01/03 09:55:51;;;;;;;;;;;11.30;99.90;;;;;;5070396;28;20397;-68
2022/01/03 09:58:17;;;;;;;;;;;11.30;99.90;;;;;;5071293;28;19916;-69
2022/01/03 10:00:43;;;;;;;;;;;11.30;99.90;;;;;;5071429;28;19938;-68
2022/01/03 10:03:08;;;;;;;;;;;11.30;99.90;;;;;;5071133;28;20011;-68
2022/01/03 10:05:34;;;;;;;;;;;11.30;99.90;;;;;;5069613;28;20015;-68
2022/01/03 10:08:00;;;;;;;;;;;11.40;99.90;;;;;;5071884;28;19961;-68
2022/01/03 10:10:27;;;;;;;;;;;11.30;99.90;;;;;;5071020;28;19908;-67
2022/01/03 10:12:53;;;;;;;;;;;11.40;99.90;;;;;;5070845;28;20466;-68
2022/01/03 10:15:19;;;;;;;;;;;11.50;99.90;;;;;;5068860;28;19912;-68
2022/01/03 10:17:47;;;;;;;;;;;11.50;99.90;;;;;;5070972;28;20032;-67
2022/01/03 10:20:13;;;;;;;;;;;11.50;99.90;;;;;;5066140;28;19930;-68
2022/01/03 10:22:39;;;;;;;;;;;11.50;99.90;;;;;;5071419;28;19908;-68
2022/01/03 10:25:32;;;;;;;;;;;11.50;99.90;;;;;;5071635;28;19916;-67
2022/01/03 10:28:00;;;;;;;;;;;11.50;99.90;;;;;;5053581;28;20254;-68
2022/01/03 10:30:32;;;;;;;;;;;11.40;99.90;;;;;;5072193;28;19912;-68
2022/01/03 10:32:57;;;;;;;;;;;11.50;99.90;;;;;;5072260;28;19909;-67
2022/01/03 10:35:23;;;;;;;;;;;11.50;99.90;;;;;;5071205;28;19962;-67
2022/01/03 10:37:49;;;;;;;;;;;11.50;99.90;;;;;;5070070;28;19930;-68
2022/01/03 10:40:27;;;;;;;;;;;11.50;99.90;;;;;;5069253;28;19938;-68
2022/01/03 10:43:14;;;;;;;;;;;11.50;99.90;;;;;;5071647;28;19935;-67
2022/01/03 10:45:39;;;;;;;;;;;11.50;99.90;;;;;;5055293;28;19919;-68
2022/01/03 10:48:25;;;;;;;;;;;11.60;99.90;;;;;;5071228;28;20374;-67
2022/01/03 10:50:51;;;;;;;;;;;11.50;99.90;;;;;;5070061;28;19916;-68
2022/01/03 10:53:29;;;;;;;;;;;11.50;99.90;;;;;;5070907;28;19915;-68
2022/01/03 10:55:55;;;;;;;;;;;11.50;99.90;;;;;;5065150;28;19912;-68
2022/01/03 10:58:30;;;;;;;;;;;11.60;99.90;;;;;;5060336;28;19936;-67
2022/01/03 11:00:56;;;;;;;;;;;11.60;99.90;;;;;;5046192;28;20506;-68
2022/01/03 11:03:36;;;;;;;;;;;11.60;99.90;;;;;;5070421;28;19996;-67
2022/01/03 11:06:13;;;;;;;;;;;11.70;99.90;;;;;;5069818;28;19923;-68
2022/01/03 11:11:38;;;;;;;;;;;11.80;99.90;;;;;;5067795;28;20651;-69
2022/01/03 11:14:03;;;;;;;;;;;11.80;99.90;;;;;;5069489;28;19912;-69
2022/01/03 11:16:33;;;;;;;;;;;11.90;99.90;;;;;;5063862;28;19920;-68
2022/01/03 11:18:59;;;;;;;;;;;12.00;99.90;;;;;;5068984;28;19908;-67
2022/01/03 11:21:26;;;;;;;;;;;11.90;99.90;;;;;;5069098;28;19923;-67
2022/01/03 11:24:00;;;;;;;;;;;12.00;99.90;;;;;;5068297;28;19921;-68
2022/01/03 11:26:27;;;;;;;;;;;11.90;99.90;;;;;;5068934;28;19908;-68
2022/01/03 11:28:53;;;;;;;;;;;12.00;99.90;;;;;;5069063;28;19912;-68
2022/01/03 11:31:19;;;;;;;;;;;12.00;99.90;;;;;;5049083;28;20289;-68
2022/01/03 11:33:46;;;;;;;;;;;11.90;99.90;;;;;;5050520;28;19928;-67
2022/01/03 11:36:12;;;;;;;;;;;12.00;99.90;;;;;;5049437;28;19927;-69
2022/01/03 11:38:38;;;;;;;;;;;11.90;99.90;;;;;;5049238;28;20675;-68
2022/01/03 11:41:05;;;;;;;;;;;12.00;99.90;;;;;;5049827;28;19992;-69
2022/01/03 11:43:32;;;;;;;;;;;12.00;99.90;;;;;;5053802;28;19912;-68
2022/01/03 11:45:57;;;;;;;;;;;12.10;99.90;;;;;;5063495;28;20427;-68
2022/01/03 11:48:26;;;;;;;;;;;12.10;99.90;;;;;;5031215;28;19908;-67
2022/01/03 11:50:54;;;;;;;;;;;12.10;99.90;;;;;;5068992;28;20340;-66
2022/01/03 11:53:20;;;;;;;;;;;12.10;99.90;;;;;;5068374;28;20000;-66
2022/01/03 11:55:53;;;;;;;;;;;12.10;99.90;;;;;;5067356;28;19983;-67
2022/01/03 11:58:44;;;;;;;;;;;12.10;99.90;;;;;;5069505;28;20373;-68
2022/01/03 12:03:55;;;;;;;;;;;12.10;99.90;;;;;;5066377;28;19958;-69
2022/01/03 12:06:25;;;;;;;;;;;12.10;99.90;;;;;;5068679;28;20530;-69
2022/01/03 12:08:55;;;;;;;;;;;12.10;99.90;;;;;;5072646;28;20249;-69
2022/01/03 12:11:26;;;;;;;;;;;12.10;99.90;;;;;;5072951;28;19981;-68
2022/01/03 12:13:55;;;;;;;;;;;12.10;99.90;;;;;;5072830;28;19942;-67
2022/01/03 12:16:38;;;;;;;;;;;12.20;99.90;;;;;;5063235;28;21148;-70
2022/01/03 12:19:07;;;;;;;;;;;12.30;99.90;;;;;;5072527;28;19974;-67
2022/01/03 12:21:52;;;;;;;;;;;12.10;99.90;;;;;;5060167;28;19908;-67
2022/01/03 12:24:27;;;;;;;;;;;12.00;99.90;;;;;;5032904;28;25064;-68
2022/01/03 12:27:15;;;;;;;;;;;12.00;99.90;;;;;;5001951;28;25070;-68
2022/01/03 12:29:46;;;;;;;;;;;11.90;99.90;;;;;;5026644;28;20234;-68
2022/01/03 12:32:12;;;;;;;;;;;11.90;99.90;;;;;;5069746;28;20038;-68
2022/01/03 12:34:39;;;;;;;;;;;12.00;99.90;;;;;;5072311;28;20018;-68
2022/01/03 12:37:18;;;;;;;;;;;11.90;99.90;;;;;;5070786;28;20020;-68
2022/01/03 12:40:01;;;;;;;;;;;11.70;99.90;;;;;;5067549;28;19919;-67
2022/01/03 12:42:45;;;;;;;;;;;11.70;99.90;;;;;;5065906;28;19919;-67
2022/01/03 12:45:11;;;;;;;;;;;11.70;99.90;;;;;;5069506;28;19920;-66
2022/01/03 12:47:38;;;;;;;;;;;11.70;99.90;;;;;;5072068;28;20000;-68
2022/01/03 12:50:18;;;;;;;;;;;11.60;99.90;;;;;;5066326;28;20426;-68
2022/01/03 12:52:44;;;;;;;;;;;11.60;99.90;;;;;;5069332;28;20345;-68
2022/01/03 12:55:09;;;;;;;;;;;11.60;99.90;;;;;;5067182;28;19955;-69
2022/01/03 12:57:35;;;;;;;;;;;11.50;99.90;;;;;;5063951;28;19960;-68
2022/01/03 13:00:00;;;;;;;;;;;11.50;99.90;;;;;;5068618;28;19939;-66
2022/01/03 13:02:30;;;;;;;;;;;11.40;99.90;;;;;;5071462;28;20425;-67
2022/01/03 13:04:56;;;;;;;;;;;11.30;99.90;;;;;;5071252;28;19919;-68
2022/01/03 13:07:22;;;;;;;;;;;11.30;99.90;;;;;;5070340;28;19959;-68
2022/01/03 13:09:48;;;;;;;;;;;11.40;99.90;;;;;;5071132;28;20560;-69
2022/01/03 13:12:13;;;;;;;;;;;11.40;99.90;;;;;;5059363;28;19916;-68
2022/01/03 13:14:39;;;;;;;;;;;11.40;99.90;;;;;;5052022;28;20649;-68
2022/01/03 13:17:04;;;;;;;;;;;11.30;99.90;;;;;;5047967;28;20471;-67
2022/01/03 13:19:34;;;;;;;;;;;11.20;99.90;;;;;;5063203;28;25142;-67
2022/01/03 13:22:06;;;;;;;;;;;11.20;99.90;;;;;;5054830;28;25105;-67
2022/01/03 13:24:33;;;;;;;;;;;11.20;99.90;;;;;;5062492;28;19959;-67
2022/01/03 13:27:04;;;;;;;5.20;1.70;;;11.10;99.90;;;;;;5066072;28;19939;-68
2022/01/03 13:29:49;;;;;;;5.03;2.50;;;11.10;99.90;;;;;;5064042;28;20461;-69
2022/01/03 13:32:26;;;;;;;5.60;1.57;;;11.00;99.90;;;;;;5069900;28;20459;-69
2022/01/03 13:34:54;;;;;;;4.77;1.60;;;11.00;99.90;;;;;;5070502;28;20533;-68
2022/01/03 13:37:23;;;;;;;6.23;1.53;;;11.00;99.90;;;;;;5061703;28;20423;-68
2022/01/03 13:39:50;;;;;;;5.53;1.83;;;11.00;99.90;;;;;;5064879;28;20466;-67
2022/01/03 13:43:00;;;;;;;2.50;1.47;;;10.90;99.90;;;;;;5068662;28;20434;-68
2022/01/03 13:50:44;;;;;;;2.40;1.60;;;10.90;99.90;;;;;;5070317;28;20461;-70
2022/01/03 13:53:11;;;;;;;3.50;1.53;;;10.90;99.90;;;;;;5069909;28;20419;-68
2022/01/03 13:55:37;;;;;;;6.10;2.00;;;10.90;99.90;;;;;;5066132;28;20189;-68
2022/01/03 13:58:15;;;;;;;3.33;1.87;;;10.90;99.90;;;;;;5069739;28;20454;-68
2022/01/03 14:00:45;;;;;;;4.17;1.90;;;10.80;99.90;;;;;;5070375;28;20424;-69
2022/01/03 14:03:15;;;;;;;4.17;2.00;;;10.80;99.90;;;;;;5070269;28;20832;-68
2022/01/03 14:05:44;;;;;;;5.53;2.00;;;10.80;99.90;;;;;;5051289;28;20739;-69
2022/01/03 14:08:14;;;;;;;5.70;2.40;;;10.80;99.90;;;;;;5066038;28;20928;-69
2022/01/03 14:10:49;;;;;;;8.00;3.00;;;10.90;99.90;;;;;;5066752;28;20469;-67
2022/01/03 14:13:22;;;;;;;4.30;2.07;;;10.90;99.90;;;;;;5068886;28;20513;-68
2022/01/03 14:16:06;;;;;;;4.17;2.00;;;10.80;99.90;;;;;;5067889;28;20427;-68
2022/01/03 14:18:34;;;;;;;2.90;2.57;;;10.70;99.90;;;;;;5060381;28;20435;-68
2022/01/03 14:21:11;;;;;;;6.95;2.63;;;10.70;99.90;;;;;;5064925;28;20526;-67
2022/01/03 14:23:44;;;;;;;3.83;2.30;;;10.70;99.90;;;;;;5064890;28;21044;-69
2022/01/03 14:26:15;;;;;;;3.80;2.30;;;10.70;99.90;;;;;;5065007;28;20432;-68
2022/01/03 14:28:40;;;;;;;5.47;2.77;;;10.60;99.90;;;;;;5066943;28;20432;-67
2022/01/03 14:31:08;;;;;;;16.07;3.50;;;10.60;99.90;;;;;;5064879;28;20470;-68
2022/01/03 14:33:37;;;;;;;8.80;2.57;;;10.60;99.90;;;;;;5070253;28;20244;-69
2022/01/03 14:36:19;;;;;;;5.50;2.80;;;10.70;99.90;;;;;;5058224;28;20424;-68